createdAt,value
2022-09-23T00:14:41.011Z,101863.53
2022-09-23T00:19:44.280Z,101859.28
2022-09-23T00:24:48.743Z,101862.34
2022-09-23T00:29:53.503Z,101860.03
2022-09-23T00:34:56.520Z,101853.38
2022-09-23T00:40:01.743Z,101858.69
2022-09-23T00:45:07.888Z,101861.72
2022-09-23T00:50:16.077Z,101840.94
2022-09-23T00:55:25.302Z,101849.22
2022-09-23T01:00:28.202Z,101840.84
2022-09-23T01:05:31.265Z,101841.16
2022-09-23T01:10:44.492Z,101840.63
2022-09-23T01:15:51.551Z,101835.03
2022-09-23T01:20:59.465Z,101831.00
2022-09-23T01:26:21.373Z,101826.19
2022-09-23T01:31:30.901Z,101824.75
2022-09-23T01:36:39.420Z,101822.44
2022-09-23T01:41:54.346Z,101814.16
2022-09-23T01:47:02.949Z,101806.72
2022-09-23T01:52:15.952Z,101808.97
2022-09-23T01:57:25.005Z,101803.34
2022-09-23T02:02:34.093Z,101796.81
2022-09-23T02:07:44.325Z,101796.44
2022-09-23T02:12:49.900Z,101790.66
2022-09-23T02:18:00.215Z,101791.88
2022-09-23T02:23:08.081Z,101790.44
2022-09-23T02:28:16.143Z,101786.53
2022-09-23T02:33:25.054Z,101779.88
2022-09-23T02:38:35.775Z,101777.78
2022-09-23T02:43:50.562Z,101773.06
2022-09-23T02:49:02.440Z,101774.41
2022-09-23T02:54:07.289Z,101767.84
2022-09-23T02:59:11.272Z,101764.72
2022-09-23T03:04:23.309Z,101769.56
2022-09-23T03:09:31.338Z,101762.38
2022-09-23T03:14:43.117Z,101759.25
2022-09-23T03:19:51.843Z,101752.69
2022-09-23T03:24:56.404Z,101745.38
2022-09-23T03:30:00.641Z,101733.38
2022-09-23T03:35:06.414Z,101726.19
2022-09-23T03:40:13.961Z,101726.84
2022-09-23T03:45:21.135Z,101717.16
2022-09-23T03:50:25.791Z,101708.94
2022-09-23T03:55:28.681Z,101711.41
2022-09-23T04:00:31.656Z,101705.00
2022-09-23T04:05:36.631Z,101703.06
2022-09-23T04:10:42.720Z,101697.72
2022-09-23T04:15:45.542Z,101694.56
2022-09-23T04:20:49.849Z,101691.56
2022-09-23T04:25:52.738Z,101689.44
2022-09-23T04:30:57.804Z,101691.81
2022-09-23T04:36:02.455Z,101685.41
2022-09-23T04:41:05.808Z,101687.09
2022-09-23T04:46:11.063Z,101688.66
2022-09-23T04:51:18.384Z,101683.97
2022-09-23T04:56:23.487Z,101688.78
2022-09-23T05:01:28.747Z,101679.00
2022-09-23T05:06:35.026Z,101679.13
2022-09-23T05:11:37.898Z,101669.06
2022-09-23T05:16:40.884Z,101668.94
2022-09-23T05:21:45.336Z,101667.66
2022-09-23T05:26:48.211Z,101682.25
2022-09-23T05:31:53.252Z,101680.06
2022-09-23T05:36:58.603Z,101676.13
2022-09-23T05:42:01.785Z,101681.75
2022-09-23T05:47:05.413Z,101674.59
2022-09-23T05:52:09.955Z,101676.13
2022-09-23T05:57:13.090Z,101673.41
2022-09-23T06:02:16.574Z,101672.25
2022-09-23T06:07:21.664Z,101675.88
2022-09-23T06:12:25.188Z,101668.59
2022-09-23T06:17:28.079Z,101673.28
2022-09-23T06:22:36.734Z,101670.63
2022-09-23T06:27:41.394Z,101672.28
2022-09-23T06:32:49.939Z,101670.25
2022-09-23T06:37:54.737Z,101668.38
2022-09-23T06:43:06.482Z,101671.50
2022-09-23T06:48:09.975Z,101664.81
2022-09-23T06:53:14.396Z,101663.44
2022-09-23T06:58:17.403Z,101654.97
2022-09-23T07:03:20.725Z,101655.16
2022-09-23T07:08:25.145Z,101658.00
2022-09-23T07:13:29.406Z,101659.91
2022-09-23T07:18:36.642Z,101659.91
2022-09-23T07:23:41.437Z,101653.72
2022-09-23T07:28:44.985Z,101660.50
2022-09-23T07:33:48.316Z,101655.34
2022-09-23T07:38:52.652Z,101664.00
2022-09-23T07:43:59.073Z,101654.34
2022-09-23T07:49:03.041Z,101651.63
2022-09-23T07:54:10.734Z,101651.59
2022-09-23T07:59:18.394Z,101650.53
2022-09-23T08:04:26.055Z,101645.84
2022-09-23T08:09:33.440Z,101650.72
2022-09-23T08:14:36.976Z,101651.06
2022-09-23T08:19:39.935Z,101649.66
2022-09-23T08:24:44.696Z,101642.03
2022-09-23T08:29:48.014Z,101643.06
2022-09-23T08:34:50.868Z,101640.41
2022-09-23T08:39:55.192Z,101629.03
2022-09-23T08:45:02.889Z,101626.56
2022-09-23T08:50:09.897Z,101624.09
2022-09-23T08:55:16.102Z,101629.69
2022-09-23T09:00:22.950Z,101620.13
2022-09-23T09:05:31.288Z,101625.38
2022-09-23T09:10:45.073Z,101620.84
2022-09-23T09:15:57.418Z,101609.84
2022-09-23T09:21:08.661Z,101614.94
2022-09-23T09:26:21.527Z,101602.44
2022-09-23T09:31:39.726Z,101605.03
2022-09-23T09:36:49.197Z,101602.84
2022-09-23T09:41:58.670Z,101601.50
2022-09-23T09:47:17.507Z,101601.06
2022-09-23T09:52:29.300Z,101608.69
2022-09-23T09:57:40.648Z,101590.59
2022-09-23T10:02:44.144Z,101585.41
2022-09-23T10:07:48.790Z,101580.22
2022-09-23T10:12:54.199Z,101570.47
2022-09-23T10:17:57.400Z,101555.41
2022-09-23T10:23:10.150Z,101550.91
2022-09-23T10:28:43.396Z,101556.28
2022-09-23T10:33:50.764Z,101538.97
2022-09-23T10:39:23.949Z,101538.56
2022-09-23T10:44:59.576Z,101536.75
2022-09-23T10:50:32.623Z,101525.38
2022-09-23T10:55:53.977Z,101523.50
2022-09-23T11:01:40.031Z,101519.84
2022-09-23T11:07:13.726Z,101519.00
2022-09-23T11:12:37.434Z,101514.16
2022-09-23T11:18:35.199Z,101507.56
2022-09-23T11:24:08.505Z,101509.69
2022-09-23T11:30:00.857Z,101494.97
2022-09-23T11:35:20.902Z,101488.06
2022-09-23T11:40:30.410Z,101481.69
2022-09-23T11:45:38.322Z,101481.00
2022-09-23T11:50:58.188Z,101468.63
2022-09-23T11:56:07.251Z,101463.53
2022-09-23T12:01:33.187Z,101457.81
2022-09-23T12:06:50.218Z,101452.19
2022-09-23T12:12:01.895Z,101447.22
2022-09-23T12:17:31.521Z,101432.97
2022-09-23T12:22:50.638Z,101430.84
2022-09-23T12:27:55.682Z,101431.41
2022-09-23T12:33:09.027Z,101417.44
2022-09-23T12:38:20.827Z,101419.75
2022-09-23T12:43:30.869Z,101412.22
2022-09-23T12:49:02.824Z,101403.59
2022-09-23T12:54:25.546Z,101402.53
2022-09-23T12:59:31.300Z,101396.72
2022-09-23T13:05:03.892Z,101391.50
2022-09-23T13:10:17.135Z,101378.63
2022-09-23T13:15:30.351Z,101374.91
2022-09-23T13:20:41.749Z,101374.09
2022-09-23T13:25:46.434Z,101369.59
2022-09-23T13:30:52.131Z,101362.50
2022-09-23T13:35:59.752Z,101360.47
2022-09-23T13:41:08.264Z,101356.88
2022-09-23T13:46:17.114Z,101342.44
2022-09-23T13:51:25.054Z,101336.19
2022-09-23T13:56:32.137Z,101344.66
2022-09-23T14:01:43.186Z,101332.91
2022-09-23T14:06:46.930Z,101330.94
2022-09-23T14:11:56.136Z,101336.78
2022-09-23T14:16:59.911Z,101334.81
2022-09-23T14:22:02.812Z,101330.28
2022-09-23T14:27:15.222Z,101323.13
2022-09-23T14:32:22.657Z,101322.84
2022-09-23T14:37:49.104Z,101328.66
2022-09-23T14:43:04.610Z,101318.69
2022-09-23T14:48:10.384Z,101309.53
2022-09-23T14:53:35.090Z,101309.31
2022-09-23T14:58:51.197Z,101306.38
2022-09-23T15:03:59.895Z,101294.31
2022-09-23T15:09:03.103Z,101298.53
2022-09-23T15:14:33.581Z,101299.28
2022-09-23T15:19:31.828Z,101293.78
2022-09-23T15:24:43.304Z,101292.84
2022-09-23T15:29:48.650Z,101286.59
2022-09-23T15:34:52.031Z,101282.06
2022-09-23T15:39:54.951Z,101276.63
2022-09-23T15:45:01.016Z,101276.63
2022-09-23T15:50:03.907Z,101273.88
2022-09-23T15:55:16.191Z,101279.09
2022-09-23T16:00:21.353Z,101275.28
2022-09-23T16:05:30.735Z,101278.56
2022-09-23T16:10:34.028Z,101268.53
2022-09-23T16:15:39.157Z,101270.03
2022-09-23T16:20:44.666Z,101264.38
2022-09-23T16:25:50.312Z,101269.34
2022-09-23T16:30:54.843Z,101266.31
2022-09-23T16:36:01.001Z,101269.44
2022-09-23T16:41:04.100Z,101265.53
2022-09-23T16:46:12.897Z,101258.75
2022-09-23T16:51:18.759Z,101255.41
2022-09-23T16:56:28.199Z,101253.75
2022-09-23T17:01:50.793Z,101256.75
2022-09-23T17:06:55.126Z,101263.22
2022-09-23T17:12:07.713Z,101261.00
2022-09-23T17:17:12.186Z,101264.16
2022-09-23T17:22:15.091Z,101266.44
2022-09-23T17:27:18.118Z,101259.09
2022-09-23T17:32:22.357Z,101254.31
2022-09-23T17:37:25.317Z,101249.63
2022-09-23T17:42:34.097Z,101256.28
2022-09-23T17:47:41.409Z,101254.31
2022-09-23T17:52:44.737Z,101250.44
2022-09-23T17:57:52.814Z,101246.56
2022-09-23T18:02:58.251Z,101245.47
2022-09-23T18:08:05.359Z,101243.47
2022-09-23T18:13:09.078Z,101237.84
2022-09-23T18:18:13.405Z,101241.28
2022-09-23T18:23:16.108Z,101240.25
2022-09-23T18:28:18.821Z,101232.94
2022-09-23T18:33:23.594Z,101235.53
2022-09-23T18:38:26.369Z,101237.06
2022-09-23T18:43:37.498Z,101238.63
2022-09-23T18:49:01.884Z,101240.16
2022-09-23T18:54:06.907Z,101235.31
2022-09-23T18:59:12.460Z,101239.66
2022-09-23T19:04:18.559Z,101227.94
2022-09-23T19:09:21.527Z,101233.94
2022-09-23T19:14:24.607Z,101238.22
2022-09-23T19:19:30.092Z,101237.88
2022-09-23T19:24:32.853Z,101231.47
2022-09-23T19:29:35.699Z,101240.03
2022-09-23T19:34:39.826Z,101238.94
2022-09-23T19:39:42.524Z,101233.22
2022-09-23T19:44:45.241Z,101227.66
2022-09-23T19:49:49.653Z,101222.03
2022-09-23T19:54:52.379Z,101226.81
2022-09-23T19:59:55.092Z,101209.53
2022-09-23T20:04:59.269Z,101218.94
2022-09-23T20:10:02.081Z,101217.72
2022-09-23T20:15:05.630Z,101212.00
2022-09-23T20:20:11.805Z,101212.66
2022-09-23T20:25:14.590Z,101211.53
2022-09-23T20:30:17.979Z,101207.66
2022-09-23T20:35:22.313Z,101208.38
2022-09-23T20:40:25.101Z,101205.50
2022-09-23T20:45:27.847Z,101197.34
2022-09-23T20:50:31.940Z,101205.06
2022-09-23T20:55:34.639Z,101196.78
2022-09-23T21:00:37.427Z,101191.16
2022-09-23T21:05:42.095Z,101190.19
2022-09-23T21:10:45.768Z,101185.72
2022-09-23T21:15:48.761Z,101183.94
2022-09-23T21:20:56.692Z,101179.56
2022-09-23T21:26:02.476Z,101184.84
2022-09-23T21:31:07.659Z,101182.28
2022-09-23T21:36:11.813Z,101173.38
2022-09-23T21:41:14.700Z,101166.13
2022-09-23T21:46:20.886Z,101168.53
2022-09-23T21:51:26.818Z,101169.44
2022-09-23T21:56:31.240Z,101169.31
2022-09-23T22:01:36.236Z,101170.19
2022-09-23T22:06:40.832Z,101164.84
2022-09-23T22:12:01.413Z,101165.44
2022-09-23T22:17:05.615Z,101162.59
2022-09-23T22:22:13.255Z,101157.00
2022-09-23T22:27:18.229Z,101153.22
2022-09-23T22:32:54.467Z,101145.97
2022-09-23T22:38:00.950Z,101138.56
2022-09-23T22:43:03.660Z,101144.44
2022-09-23T22:48:06.678Z,101140.75
2022-09-23T22:53:11.078Z,101141.44
2022-09-23T22:58:31.191Z,101134.47
2022-09-23T23:03:35.524Z,101132.78
2022-09-23T23:08:40.645Z,101122.13
2022-09-23T23:13:43.771Z,101125.66
2022-09-23T23:18:47.649Z,101126.25
2022-09-23T23:23:53.657Z,101119.84
2022-09-23T23:28:57.875Z,101123.41
2022-09-23T23:34:00.619Z,101126.03
2022-09-23T23:39:04.905Z,101117.31
2022-09-23T23:44:08.247Z,101123.31
2022-09-23T23:49:11.032Z,101117.19
2022-09-23T23:54:15.619Z,101116.31
2022-09-23T23:59:19.684Z,101110.88
